GLD1440 SSST-SSPL
Flight info
| Callsign | GLD1440 |
|---|---|
| Flight time | 0h 45m |
| Altitude | 9500 |
| Route | 2844S05433W 2819S05359W 2804S05332W |
| Aircraft | BE58/L-SDFGIRY/S |
Departure
| Time | 2026-04-26 13:42 |
|---|---|
| Airport | Santiago Airport (SSST) |
Arrival
| Time | 2026-04-26 14:27 |
|---|---|
| Airport | Palmeira das Missões Airport (SSPL) |
| Time | Latitude | Longitude | Altitude | Speed | Heading |
|---|---|---|---|---|---|
| 2026-04-26 13:30 | -29.21492 | -54.84276 | 1453 ft | 0 kts | 328° |
| 2026-04-26 13:38 | -29.21473 | -54.84289 | 1453 ft | 8 kts | 334° |
| 2026-04-26 13:39 | -29.21430 | -54.84256 | 1453 ft | 0 kts | 71° |
| 2026-04-26 13:39 | -29.21430 | -54.84255 | 1453 ft | 1 kts | 71° |
| 2026-04-26 13:40 | -29.21428 | -54.84247 | 1454 ft | 4 kts | 71° |
| 2026-04-26 13:40 | -29.21446 | -54.84199 | 1454 ft | 0 kts | 163° |
| 2026-04-26 13:41 | -29.21688 | -54.84107 | 1455 ft | 81 kts | 161° |
| 2026-04-26 13:41 | -29.22404 | -54.83811 | 1553 ft | 125 kts | 158° |
| 2026-04-26 13:41 | -29.23101 | -54.83134 | 1783 ft | 144 kts | 121° |
| 2026-04-26 13:41 | -29.23254 | -54.81976 | 1956 ft | 158 kts | 77° |
| 2026-04-26 13:42 | -29.22588 | -54.80948 | 2015 ft | 167 kts | 26° |
| 2026-04-26 13:42 | -29.21458 | -54.80892 | 2084 ft | 166 kts | 337° |
| 2026-04-26 13:42 | -29.20389 | -54.81390 | 2166 ft | 166 kts | 337° |
| 2026-04-26 13:42 | -29.19295 | -54.81839 | 2307 ft | 169 kts | 339° |
| 2026-04-26 13:43 | -29.18145 | -54.82268 | 2508 ft | 178 kts | 342° |
| 2026-04-26 13:43 | -29.16957 | -54.82634 | 2705 ft | 180 kts | 346° |
| 2026-04-26 13:43 | -29.15730 | -54.82455 | 2924 ft | 183 kts | 27° |
| 2026-04-26 13:43 | -29.14877 | -54.81401 | 3183 ft | 184 kts | 61° |
| 2026-04-26 13:44 | -29.14179 | -54.80164 | 3413 ft | 183 kts | 50° |
| 2026-04-26 13:44 | -29.13233 | -54.79241 | 3654 ft | 177 kts | 29° |
| 2026-04-26 13:44 | -29.12135 | -54.78598 | 3893 ft | 177 kts | 24° |
| 2026-04-26 13:44 | -29.11042 | -54.77960 | 4152 ft | 176 kts | 26° |
| 2026-04-26 13:45 | -29.09956 | -54.77304 | 4389 ft | 176 kts | 25° |
| 2026-04-26 13:45 | -29.08886 | -54.76660 | 4649 ft | 173 kts | 25° |
| 2026-04-26 13:45 | -29.07823 | -54.76019 | 4882 ft | 172 kts | 24° |
| 2026-04-26 13:45 | -29.06771 | -54.75398 | 5116 ft | 171 kts | 24° |
| 2026-04-26 13:46 | -29.05712 | -54.74766 | 5363 ft | 171 kts | 24° |
| 2026-04-26 13:46 | -29.04655 | -54.74142 | 5600 ft | 171 kts | 23° |
| 2026-04-26 13:46 | -29.03604 | -54.73515 | 5851 ft | 171 kts | 24° |
| 2026-04-26 13:46 | -29.02545 | -54.72873 | 6093 ft | 171 kts | 24° |
| 2026-04-26 13:47 | -29.01499 | -54.72247 | 6337 ft | 169 kts | 22° |
| 2026-04-26 13:47 | -29.00456 | -54.71630 | 6565 ft | 167 kts | 23° |
| 2026-04-26 13:47 | -28.99460 | -54.71028 | 6788 ft | 161 kts | 22° |
| 2026-04-26 13:47 | -28.98463 | -54.70435 | 7017 ft | 158 kts | 21° |
| 2026-04-26 13:48 | -28.97489 | -54.69856 | 7244 ft | 156 kts | 21° |
| 2026-04-26 13:48 | -28.96554 | -54.69297 | 7473 ft | 152 kts | 20° |
| 2026-04-26 13:48 | -28.95608 | -54.68736 | 7710 ft | 150 kts | 19° |
| 2026-04-26 13:48 | -28.94704 | -54.68196 | 7940 ft | 147 kts | 19° |
| 2026-04-26 13:49 | -28.93805 | -54.67662 | 8172 ft | 143 kts | 18° |
| 2026-04-26 13:49 | -28.92933 | -54.67146 | 8407 ft | 139 kts | 17° |
| 2026-04-26 13:49 | -28.92089 | -54.66638 | 8635 ft | 134 kts | 16° |
| 2026-04-26 13:49 | -28.91287 | -54.66157 | 8856 ft | 127 kts | 15° |
| 2026-04-26 13:50 | -28.90534 | -54.65700 | 9068 ft | 117 kts | 13° |
| 2026-04-26 13:50 | -28.89862 | -54.65301 | 9234 ft | 107 kts | 6° |
| 2026-04-26 13:50 | -28.89144 | -54.64901 | 9363 ft | 127 kts | 13° |
| 2026-04-26 13:50 | -28.88283 | -54.64393 | 9379 ft | 151 kts | 15° |
| 2026-04-26 13:51 | -28.87301 | -54.63804 | 9378 ft | 167 kts | 17° |
| 2026-04-26 13:51 | -28.86239 | -54.63171 | 9373 ft | 179 kts | 17° |
| 2026-04-26 13:51 | -28.85098 | -54.62483 | 9364 ft | 188 kts | 19° |
| 2026-04-26 13:51 | -28.83934 | -54.61764 | 9357 ft | 192 kts | 19° |
| 2026-04-26 13:52 | -28.82744 | -54.61072 | 9355 ft | 192 kts | 16° |
| 2026-04-26 13:52 | -28.81539 | -54.60379 | 9355 ft | 196 kts | 19° |
| 2026-04-26 13:52 | -28.80337 | -54.59637 | 9354 ft | 197 kts | 19° |
| 2026-04-26 13:52 | -28.79121 | -54.58909 | 9352 ft | 198 kts | 18° |
| 2026-04-26 13:53 | -28.77893 | -54.58181 | 9356 ft | 200 kts | 19° |
| 2026-04-26 13:53 | -28.76664 | -54.57439 | 9356 ft | 201 kts | 19° |
| 2026-04-26 13:53 | -28.75424 | -54.56704 | 9359 ft | 201 kts | 19° |
| 2026-04-26 13:53 | -28.74183 | -54.55963 | 9357 ft | 202 kts | 20° |
| 2026-04-26 13:54 | -28.73101 | -54.54881 | 9351 ft | 213 kts | 46° |
| 2026-04-26 13:54 | -28.72189 | -54.53560 | 9350 ft | 211 kts | 44° |
| 2026-04-26 13:54 | -28.71243 | -54.52282 | 9353 ft | 211 kts | 43° |
| 2026-04-26 13:55 | -28.69365 | -54.49696 | 9353 ft | 212 kts | 44° |
| 2026-04-26 13:55 | -28.68743 | -54.48834 | 9354 ft | 212 kts | 44° |
| 2026-04-26 13:55 | -28.66548 | -54.45805 | 9355 ft | 212 kts | 44° |
| 2026-04-26 13:56 | -28.65613 | -54.44507 | 9352 ft | 211 kts | 44° |
| 2026-04-26 13:56 | -28.64671 | -54.43230 | 9355 ft | 211 kts | 43° |
| 2026-04-26 13:56 | -28.63733 | -54.41949 | 9352 ft | 211 kts | 43° |
| 2026-04-26 13:56 | -28.62806 | -54.40656 | 9353 ft | 210 kts | 44° |
| 2026-04-26 13:57 | -28.61880 | -54.39368 | 9346 ft | 210 kts | 43° |
| 2026-04-26 13:57 | -28.60947 | -54.38092 | 9349 ft | 210 kts | 44° |
| 2026-04-26 13:57 | -28.60016 | -54.36812 | 9351 ft | 210 kts | 44° |
| 2026-04-26 13:57 | -28.59099 | -54.35546 | 9353 ft | 210 kts | 44° |
| 2026-04-26 13:58 | -28.58168 | -54.34269 | 9349 ft | 210 kts | 43° |
| 2026-04-26 13:58 | -28.57239 | -54.32989 | 9345 ft | 209 kts | 43° |
| 2026-04-26 13:58 | -28.56313 | -54.31714 | 9345 ft | 208 kts | 43° |
| 2026-04-26 13:58 | -28.55388 | -54.30445 | 9345 ft | 209 kts | 43° |
| 2026-04-26 13:59 | -28.54464 | -54.29174 | 9338 ft | 209 kts | 44° |
| 2026-04-26 13:59 | -28.53540 | -54.27903 | 9344 ft | 208 kts | 43° |
| 2026-04-26 13:59 | -28.52615 | -54.26634 | 9338 ft | 208 kts | 44° |
| 2026-04-26 14:00 | -28.49839 | -54.22825 | 9342 ft | 209 kts | 43° |
| 2026-04-26 14:00 | -28.48912 | -54.21551 | 9344 ft | 209 kts | 43° |
| 2026-04-26 14:00 | -28.48297 | -54.20706 | 9337 ft | 209 kts | 44° |
| 2026-04-26 14:01 | -28.47054 | -54.19002 | 9342 ft | 208 kts | 43° |
| 2026-04-26 14:01 | -28.46130 | -54.17737 | 9341 ft | 209 kts | 43° |
| 2026-04-26 14:01 | -28.45202 | -54.16466 | 9341 ft | 210 kts | 43° |
| 2026-04-26 14:01 | -28.44277 | -54.15200 | 9343 ft | 210 kts | 43° |
| 2026-04-26 14:02 | -28.43334 | -54.13907 | 9342 ft | 210 kts | 43° |
| 2026-04-26 14:02 | -28.42403 | -54.12630 | 9347 ft | 210 kts | 43° |
| 2026-04-26 14:02 | -28.41469 | -54.11356 | 9347 ft | 210 kts | 43° |
| 2026-04-26 14:02 | -28.40536 | -54.10081 | 9349 ft | 210 kts | 43° |
| 2026-04-26 14:03 | -28.39604 | -54.08803 | 9348 ft | 210 kts | 43° |
| 2026-04-26 14:03 | -28.38667 | -54.07523 | 9345 ft | 210 kts | 43° |
| 2026-04-26 14:03 | -28.37731 | -54.06244 | 9350 ft | 211 kts | 43° |
| 2026-04-26 14:03 | -28.36793 | -54.04959 | 9348 ft | 211 kts | 43° |
| 2026-04-26 14:04 | -28.35853 | -54.03675 | 9349 ft | 211 kts | 43° |
| 2026-04-26 14:04 | -28.34927 | -54.02414 | 9347 ft | 212 kts | 43° |
| 2026-04-26 14:04 | -28.33982 | -54.01121 | 9347 ft | 211 kts | 43° |
| 2026-04-26 14:04 | -28.33045 | -53.99842 | 9349 ft | 211 kts | 43° |
| 2026-04-26 14:05 | -28.32109 | -53.98567 | 9343 ft | 211 kts | 43° |
| 2026-04-26 14:05 | -28.31278 | -53.97172 | 9345 ft | 214 kts | 53° |
| 2026-04-26 14:05 | -28.30504 | -53.95722 | 9349 ft | 214 kts | 52° |
| 2026-04-26 14:05 | -28.29714 | -53.94293 | 9350 ft | 214 kts | 52° |
| 2026-04-26 14:06 | -28.28922 | -53.92857 | 9352 ft | 214 kts | 52° |
| 2026-04-26 14:06 | -28.28134 | -53.91424 | 9347 ft | 214 kts | 52° |
| 2026-04-26 14:06 | -28.27347 | -53.89991 | 9350 ft | 214 kts | 52° |
| 2026-04-26 14:06 | -28.26556 | -53.88559 | 9353 ft | 214 kts | 52° |
| 2026-04-26 14:07 | -28.25759 | -53.87117 | 9163 ft | 215 kts | 52° |
| 2026-04-26 14:07 | -28.24972 | -53.85688 | 8953 ft | 212 kts | 53° |
| 2026-04-26 14:07 | -28.24199 | -53.84282 | 8750 ft | 209 kts | 53° |
| 2026-04-26 14:07 | -28.23431 | -53.82891 | 8552 ft | 207 kts | 54° |
| 2026-04-26 14:08 | -28.22679 | -53.81524 | 8354 ft | 206 kts | 53° |
| 2026-04-26 14:08 | -28.21921 | -53.80149 | 8158 ft | 206 kts | 54° |
| 2026-04-26 14:08 | -28.21167 | -53.78782 | 7980 ft | 203 kts | 54° |
| 2026-04-26 14:08 | -28.20420 | -53.77435 | 7838 ft | 201 kts | 54° |
| 2026-04-26 14:09 | -28.19675 | -53.76097 | 7687 ft | 200 kts | 54° |
| 2026-04-26 14:09 | -28.18930 | -53.74771 | 7542 ft | 199 kts | 54° |
| 2026-04-26 14:09 | -28.18183 | -53.73456 | 7389 ft | 197 kts | 54° |
| 2026-04-26 14:09 | -28.17433 | -53.72156 | 7251 ft | 197 kts | 54° |
| 2026-04-26 14:10 | -28.16678 | -53.70866 | 7110 ft | 196 kts | 54° |
| 2026-04-26 14:10 | -28.15927 | -53.69585 | 6963 ft | 194 kts | 54° |
| 2026-04-26 14:10 | -28.15176 | -53.68318 | 6825 ft | 194 kts | 54° |
| 2026-04-26 14:10 | -28.14424 | -53.67053 | 6687 ft | 194 kts | 55° |
| 2026-04-26 14:11 | -28.13159 | -53.64967 | 6445 ft | 192 kts | 54° |
| 2026-04-26 14:11 | -28.12219 | -53.63436 | 6262 ft | 191 kts | 53° |
| 2026-04-26 14:11 | -28.11467 | -53.62223 | 6110 ft | 185 kts | 54° |
| 2026-04-26 14:12 | -28.10728 | -53.61030 | 5968 ft | 186 kts | 54° |
| 2026-04-26 14:12 | -28.10059 | -53.59770 | 5813 ft | 187 kts | 68° |
| 2026-04-26 14:12 | -28.09760 | -53.58838 | 5718 ft | 186 kts | 71° |
| 2026-04-26 14:12 | -28.09351 | -53.57499 | 5558 ft | 178 kts | 71° |
| 2026-04-26 14:13 | -28.08543 | -53.54911 | 5240 ft | 173 kts | 71° |
| 2026-04-26 14:13 | -28.08147 | -53.53634 | 5103 ft | 172 kts | 71° |
| 2026-04-26 14:13 | -28.07759 | -53.52364 | 4946 ft | 168 kts | 71° |
| 2026-04-26 14:14 | -28.07374 | -53.51114 | 4824 ft | 171 kts | 71° |
| 2026-04-26 14:14 | -28.06968 | -53.49827 | 4672 ft | 174 kts | 70° |
| 2026-04-26 14:14 | -28.06439 | -53.48635 | 4514 ft | 168 kts | 50° |
| 2026-04-26 14:14 | -28.05659 | -53.47664 | 4365 ft | 168 kts | 46° |
| 2026-04-26 14:15 | -28.04871 | -53.46686 | 4211 ft | 167 kts | 47° |
| 2026-04-26 14:15 | -28.04088 | -53.45712 | 4087 ft | 171 kts | 47° |
| 2026-04-26 14:15 | -28.03290 | -53.44736 | 3921 ft | 168 kts | 47° |
| 2026-04-26 14:15 | -28.02491 | -53.43756 | 3773 ft | 171 kts | 47° |
| 2026-04-26 14:16 | -28.01691 | -53.42780 | 3645 ft | 166 kts | 47° |
| 2026-04-26 14:16 | -28.00927 | -53.41770 | 3480 ft | 169 kts | 57° |
| 2026-04-26 14:16 | -28.00306 | -53.40661 | 3346 ft | 167 kts | 50° |
| 2026-04-26 14:16 | -27.99498 | -53.39684 | 3201 ft | 172 kts | 45° |
| 2026-04-26 14:17 | -27.98683 | -53.38704 | 3109 ft | 169 kts | 46° |
| 2026-04-26 14:17 | -27.97893 | -53.37760 | 3085 ft | 160 kts | 47° |
| 2026-04-26 14:17 | -27.97136 | -53.36863 | 3088 ft | 155 kts | 46° |
| 2026-04-26 14:17 | -27.96403 | -53.35992 | 3081 ft | 151 kts | 46° |
| 2026-04-26 14:18 | -27.95697 | -53.35158 | 3103 ft | 145 kts | 46° |
| 2026-04-26 14:18 | -27.94998 | -53.34324 | 3082 ft | 145 kts | 48° |
| 2026-04-26 14:18 | -27.94298 | -53.33491 | 3083 ft | 146 kts | 46° |
| 2026-04-26 14:18 | -27.93602 | -53.32666 | 3106 ft | 146 kts | 47° |
| 2026-04-26 14:19 | -27.92907 | -53.31847 | 3095 ft | 145 kts | 47° |
| 2026-04-26 14:19 | -27.92209 | -53.31027 | 3096 ft | 144 kts | 46° |
| 2026-04-26 14:19 | -27.91554 | -53.30255 | 3098 ft | 125 kts | 46° |
| 2026-04-26 14:19 | -27.90982 | -53.29580 | 3087 ft | 112 kts | 45° |
| 2026-04-26 14:20 | -27.90437 | -53.28940 | 3095 ft | 115 kts | 45° |
| 2026-04-26 14:20 | -27.89844 | -53.28273 | 3096 ft | 127 kts | 33° |
| 2026-04-26 14:20 | -27.88987 | -53.28155 | 3111 ft | 125 kts | 333° |
| 2026-04-26 14:20 | -27.88332 | -53.28768 | 3110 ft | 119 kts | 314° |
| 2026-04-26 14:21 | -27.87853 | -53.29515 | 2994 ft | 115 kts | 284° |
| 2026-04-26 14:21 | -27.87961 | -53.30298 | 2835 ft | 101 kts | 233° |
| 2026-04-26 14:21 | -27.88402 | -53.30931 | 2587 ft | 101 kts | 229° |
| 2026-04-26 14:21 | -27.88878 | -53.31532 | 2381 ft | 102 kts | 224° |
| 2026-04-26 14:22 | -27.89391 | -53.32105 | 2225 ft | 103 kts | 223° |
| 2026-04-26 14:22 | -27.89876 | -53.32653 | 2093 ft | 87 kts | 223° |
| 2026-04-26 14:22 | -27.90217 | -53.33041 | 2087 ft | 56 kts | 228° |
| 2026-04-26 14:22 | -27.90555 | -53.33432 | 2121 ft | 90 kts | 227° |
| 2026-04-26 14:23 | -27.90998 | -53.33990 | 2341 ft | 98 kts | 219° |
| 2026-04-26 14:23 | -27.91628 | -53.34239 | 2653 ft | 100 kts | 178° |
| 2026-04-26 14:23 | -27.92291 | -53.33948 | 2729 ft | 107 kts | 138° |
| 2026-04-26 14:23 | -27.92598 | -53.33163 | 2762 ft | 114 kts | 98° |
| 2026-04-26 14:24 | -27.92505 | -53.32251 | 2760 ft | 119 kts | 74° |
| 2026-04-26 14:24 | -27.92149 | -53.31433 | 2826 ft | 117 kts | 54° |
| 2026-04-26 14:24 | -27.91576 | -53.30773 | 2825 ft | 116 kts | 41° |
| 2026-04-26 14:24 | -27.90931 | -53.30230 | 2823 ft | 117 kts | 33° |
| 2026-04-26 14:25 | -27.90268 | -53.29718 | 2827 ft | 114 kts | 35° |
| 2026-04-26 14:25 | -27.89544 | -53.29304 | 2805 ft | 119 kts | 13° |
| 2026-04-26 14:25 | -27.88741 | -53.29290 | 2688 ft | 117 kts | 343° |
| 2026-04-26 14:25 | -27.88086 | -53.29768 | 2469 ft | 112 kts | 287° |
| 2026-04-26 14:26 | -27.88242 | -53.30526 | 2285 ft | 102 kts | 225° |
| 2026-04-26 14:26 | -27.88599 | -53.31231 | 2264 ft | 101 kts | 233° |
| 2026-04-26 14:26 | -27.89107 | -53.31793 | 2209 ft | 104 kts | 222° |
| 2026-04-26 14:26 | -27.89607 | -53.32361 | 2138 ft | 100 kts | 223° |
| 2026-04-26 14:27 | -27.90022 | -53.32821 | 2086 ft | 70 kts | 224° |
| 2026-04-26 14:27 | -27.90284 | -53.33107 | 2087 ft | 17 kts | 189° |
| 2026-04-26 14:27 | -27.90323 | -53.33034 | 2086 ft | 11 kts | 150° |
| 2026-04-26 14:27 | -27.90329 | -53.33044 | 2086 ft | 5 kts | 311° |
| 2026-04-26 14:28 | -27.90329 | -53.33045 | 2086 ft | 0 kts | 314° |